Time;durP1;ratioP1;P1;durP2;ratioP2;P2;SDS_P1;SDS_P2;PMS_P1;PMS_P2;Temp;Humidity;BMP_temperature;BMP_pressure;BME280_temperature;BME280_humidity;BME280_pressure;Samples;Min_cycle;Max_cycle;Signal;HPM_P1;HPM_P2
2023/12/25 00:01:03;;;;;;;1.47;0.60;;;9.20;99.90;;;;;;5021636;28;20836;-67
2023/12/25 00:03:30;;;;;;;1.30;0.40;;;8.50;99.90;;;;;;5025861;28;20433;-67
2023/12/25 00:05:55;;;;;;;1.93;0.50;;;9.40;99.90;;;;;;5030961;28;20194;-67
2023/12/25 00:08:20;;;;;;;2.23;0.83;;;8.50;99.90;;;;;;5016329;28;20445;-67
2023/12/25 00:10:46;;;;;;;1.10;0.50;;;9.10;99.90;;;;;;5019326;28;20307;-67
2023/12/25 00:13:12;;;;;;;1.20;0.50;;;9.60;99.90;;;;;;5021448;28;20210;-67
2023/12/25 00:15:37;;;;;;;4.33;0.60;;;8.40;99.90;;;;;;5014657;28;20197;-67
2023/12/25 00:18:03;;;;;;;25.43;0.77;;;8.40;99.90;;;;;;5012694;28;20415;-67
2023/12/25 00:20:29;;;;;;;3.93;0.80;;;8.40;99.90;;;;;;5011135;28;20738;-65
2023/12/25 00:22:54;;;;;;;3.63;0.63;;;8.50;99.90;;;;;;5013440;28;20195;-65
2023/12/25 00:25:20;;;;;;;1.37;0.60;;;9.10;99.90;;;;;;5026952;28;20202;-67
2023/12/25 00:27:45;;;;;;;1.40;0.60;;;9.40;99.90;;;;;;5019327;28;20184;-67
2023/12/25 00:30:11;;;;;;;1.10;0.40;;;9.70;99.90;;;;;;4997180;28;20176;-65
2023/12/25 00:32:37;;;;;;;1.10;0.50;;;8.30;99.90;;;;;;5023591;28;21026;-65
2023/12/25 00:35:03;;;;;;;1.17;0.60;;;8.40;99.90;;;;;;5025270;28;20206;-65
2023/12/25 00:37:29;;;;;;;1.10;0.50;;;8.40;99.90;;;;;;5020847;28;20498;-65
2023/12/25 00:39:54;;;;;;;1.43;0.60;;;8.70;99.90;;;;;;5016342;28;20194;-65
2023/12/25 00:42:20;;;;;;;1.30;0.60;;;8.40;99.90;;;;;;5027093;28;20270;-65
2023/12/25 00:44:46;;;;;;;1.20;0.60;;;8.30;99.90;;;;;;5017401;28;20194;-67
2023/12/25 00:47:11;;;;;;;1.30;0.70;;;8.40;99.90;;;;;;5025688;28;20517;-67
2023/12/25 00:49:36;;;;;;;1.30;0.60;;;9.30;99.90;;;;;;5017866;28;20195;-67
2023/12/25 00:52:02;;;;;;;1.10;0.50;;;9.00;99.90;;;;;;5014802;28;20211;-67
2023/12/25 00:54:29;;;;;;;1.53;0.60;;;8.40;99.90;;;;;;5014883;28;20639;-65
2023/12/25 00:56:54;;;;;;;1.20;0.60;;;8.40;99.90;;;;;;5019923;28;20219;-65
2023/12/25 00:59:20;;;;;;;1.30;0.50;;;8.40;99.90;;;;;;5014653;28;20898;-67
2023/12/25 01:01:45;;;;;;;1.20;0.60;;;9.20;99.90;;;;;;5025375;28;20689;-67
2023/12/25 01:04:11;;;;;;;1.10;0.50;;;8.80;99.90;;;;;;5026157;28;20178;-67
2023/12/25 01:06:36;;;;;;;1.10;0.40;;;9.00;99.90;;;;;;5015771;28;20187;-67
2023/12/25 01:09:02;;;;;;;1.30;0.60;;;9.20;99.90;;;;;;5021693;28;20214;-67
2023/12/25 01:11:28;;;;;;;2.30;0.80;;;8.30;99.90;;;;;;5014363;28;20653;-67
2023/12/25 01:13:53;;;;;;;1.10;0.50;;;9.30;99.90;;;;;;5020145;28;20774;-67
2023/12/25 01:16:19;;;;;;;1.67;0.60;;;8.70;99.90;;;;;;5022108;28;20664;-67
2023/12/25 01:18:44;;;;;;;1.00;0.40;;;8.70;99.90;;;;;;5022102;28;20261;-67
2023/12/25 01:21:10;;;;;;;1.20;0.50;;;8.40;99.90;;;;;;5015878;28;20191;-67
2023/12/25 01:23:35;;;;;;;1.27;0.57;;;8.40;99.90;;;;;;5009052;28;20223;-67
2023/12/25 01:26:01;;;;;;;1.17;0.53;;;8.40;99.90;;;;;;5014235;28;20199;-65
2023/12/25 01:28:26;;;;;;;1.17;0.53;;;8.40;99.90;;;;;;5016540;28;20205;-65
2023/12/25 01:30:52;;;;;;;1.60;0.50;;;8.50;99.90;;;;;;5013014;28;20520;-67
2023/12/25 01:33:17;;;;;;;1.20;0.70;;;9.00;99.90;;;;;;5022757;28;20287;-67
2023/12/25 01:35:43;;;;;;;1.80;0.73;;;8.60;99.90;;;;;;5024753;28;20183;-67
2023/12/25 01:38:08;;;;;;;5.47;0.63;;;9.00;99.90;;;;;;5011030;28;20187;-67
2023/12/25 01:40:36;;;;;;;1.10;0.50;;;8.40;99.90;;;;;;5020636;28;20206;-65
2023/12/25 01:43:01;;;;;;;1.73;0.53;;;8.60;99.90;;;;;;5018576;28;20183;-65
2023/12/25 01:45:26;;;;;;;1.07;0.40;;;8.40;99.90;;;;;;5018465;28;20428;-65
2023/12/25 01:47:52;;;;;;;1.10;0.40;;;8.80;99.90;;;;;;5019315;28;20215;-65
2023/12/25 01:50:18;;;;;;;2.10;0.60;;;8.40;99.90;;;;;;5016023;28;20233;-67
2023/12/25 01:52:44;;;;;;;3.73;0.73;;;8.50;99.90;;;;;;5006063;28;20545;-67
2023/12/25 01:55:10;;;;;;;2.17;0.60;;;8.50;99.90;;;;;;5013190;28;20175;-65
2023/12/25 01:57:36;;;;;;;3.30;0.80;;;8.80;99.90;;;;;;5013496;28;20469;-65
2023/12/25 02:00:02;;;;;;;1.10;0.50;;;8.30;99.90;;;;;;5015218;28;20191;-67
2023/12/25 02:02:28;;;;;;;1.70;0.70;;;8.40;99.90;;;;;;5019066;28;20476;-67
2023/12/25 02:04:53;;;;;;;2.60;0.67;;;8.40;99.90;;;;;;5023063;28;20418;-66
2023/12/25 02:07:20;;;;;;;3.10;0.50;;;9.40;99.90;;;;;;5025797;28;20186;-67
2023/12/25 02:09:51;;;;;;;1.33;0.60;;;9.00;99.90;;;;;;5013269;28;20211;-67
2023/12/25 02:12:17;;;;;;;1.20;0.50;;;8.30;99.90;;;;;;4998793;28;20509;-67
2023/12/25 02:14:43;;;;;;;1.27;0.50;;;9.00;99.90;;;;;;4995209;28;20480;-67
2023/12/25 02:17:10;;;;;;;4.80;0.80;;;8.90;99.90;;;;;;5013470;28;20746;-67
2023/12/25 02:19:40;;;;;;;1.20;0.47;;;8.20;99.90;;;;;;5020836;28;20179;-67
2023/12/25 02:22:07;;;;;;;4.50;0.50;;;8.80;99.90;;;;;;5022797;28;20425;-67
2023/12/25 02:24:36;;;;;;;1.60;0.60;;;8.60;99.90;;;;;;5013180;28;20505;-67
2023/12/25 02:27:02;;;;;;;3.77;0.87;;;8.20;99.90;;;;;;5018686;28;20429;-67
2023/12/25 02:29:28;;;;;;;1.10;0.50;;;8.20;99.90;;;;;;5015687;28;20426;-67
2023/12/25 02:31:53;;;;;;;1.20;0.50;;;8.20;99.90;;;;;;5026202;28;20654;-67
2023/12/25 02:34:19;;;;;;;4.20;0.50;;;8.80;99.90;;;;;;5017025;28;20261;-67
2023/12/25 02:36:44;;;;;;;1.40;0.60;;;8.20;99.90;;;;;;5014873;28;20183;-67
2023/12/25 02:39:10;;;;;;;1.20;0.50;;;8.20;99.90;;;;;;5016328;28;20187;-67
2023/12/25 02:41:35;;;;;;;1.40;0.77;;;8.50;99.90;;;;;;5015595;28;20183;-67
2023/12/25 02:44:02;;;;;;;1.30;0.60;;;9.00;99.90;;;;;;5013018;28;20517;-67
2023/12/25 02:46:27;;;;;;;1.57;0.60;;;8.30;99.90;;;;;;5012458;28;20198;-67
2023/12/25 02:48:53;;;;;;;1.70;0.63;;;8.20;99.90;;;;;;5018777;28;20771;-67
2023/12/25 02:51:18;;;;;;;1.47;0.53;;;9.00;99.90;;;;;;5013025;28;20259;-65
2023/12/25 02:53:44;;;;;;;6.30;0.60;;;8.80;99.90;;;;;;5015835;28;20659;-65
2023/12/25 02:56:09;;;;;;;1.10;0.50;;;8.90;99.90;;;;;;5019797;28;20179;-67
2023/12/25 02:58:35;;;;;;;1.80;0.50;;;9.20;99.90;;;;;;5010141;28;20219;-67
2023/12/25 03:01:00;;;;;;;1.90;0.53;;;8.60;99.90;;;;;;5018243;28;20274;-65
2023/12/25 03:03:26;;;;;;;1.10;0.53;;;8.50;99.90;;;;;;5018186;28;20236;-66
2023/12/25 03:05:51;;;;;;;1.10;0.47;;;8.30;99.90;;;;;;5015270;28;20592;-67
2023/12/25 03:08:17;;;;;;;2.10;0.80;;;9.00;99.90;;;;;;5022103;28;20189;-67
2023/12/25 03:10:42;;;;;;;1.70;0.60;;;8.30;99.90;;;;;;5024979;28;20233;-66
2023/12/25 03:13:08;;;;;;;1.40;0.57;;;9.00;99.90;;;;;;5015383;28;20226;-65
2023/12/25 03:15:35;;;;;;;2.33;0.80;;;8.20;99.90;;;;;;5009396;28;20190;-67
2023/12/25 03:18:00;;;;;;;2.10;0.80;;;8.90;99.90;;;;;;5014258;28;20210;-67
2023/12/25 03:20:26;;;;;;;1.63;0.60;;;8.30;99.90;;;;;;5014442;28;20950;-67
2023/12/25 03:22:51;;;;;;;4.37;0.63;;;8.30;99.90;;;;;;5015032;28;20190;-67
2023/12/25 03:25:17;;;;;;;2.50;0.60;;;8.60;99.70;;;;;;5011907;28;20270;-67
2023/12/25 03:27:42;;;;;;;1.63;0.60;;;8.60;99.50;;;;;;5017950;28;20187;-67
2023/12/25 03:30:08;;;;;;;1.10;0.40;;;8.40;99.30;;;;;;5017657;28;20194;-67
2023/12/25 03:32:34;;;;;;;1.30;0.50;;;8.40;99.60;;;;;;5021619;28;20199;-67
2023/12/25 03:34:59;;;;;;;1.40;0.50;;;8.40;99.30;;;;;;5009592;28;20176;-67
2023/12/25 03:37:25;;;;;;;2.13;0.90;;;8.30;99.70;;;;;;5025009;28;20421;-67
2023/12/25 03:39:52;;;;;;;1.47;0.50;;;8.60;99.90;;;;;;5012515;28;20183;-65
2023/12/25 03:42:18;;;;;;;1.10;0.50;;;8.70;99.70;;;;;;5018100;28;20765;-65
2023/12/25 03:44:43;;;;;;;1.17;0.43;;;9.10;99.80;;;;;;5002625;28;20438;-67
2023/12/25 03:47:09;;;;;;;10.97;0.70;;;8.30;99.40;;;;;;5011590;28;20422;-67
2023/12/25 03:49:35;;;;;;;10.20;0.90;;;8.90;99.50;;;;;;5008646;28;20191;-65
2023/12/25 03:52:01;;;;;;;1.20;0.60;;;8.20;99.40;;;;;;5008389;28;20183;-65
2023/12/25 03:54:27;;;;;;;1.30;0.50;;;9.00;99.70;;;;;;5007296;28;20936;-66
2023/12/25 03:56:52;;;;;;;1.90;0.97;;;8.30;99.30;;;;;;5017064;28;20219;-67
2023/12/25 03:59:18;;;;;;;9.63;1.00;;;8.30;98.90;;;;;;5015834;28;20190;-65
2023/12/25 04:01:43;;;;;;;1.10;0.40;;;8.70;99.00;;;;;;5017985;28;20187;-65
2023/12/25 04:04:09;;;;;;;1.20;0.50;;;8.30;99.20;;;;;;5024401;28;20218;-65
2023/12/25 04:06:34;;;;;;;1.40;0.50;;;8.90;99.20;;;;;;4995318;28;20213;-65
2023/12/25 04:09:00;;;;;;;1.10;0.50;;;8.20;99.10;;;;;;5026458;28;20527;-66
2023/12/25 04:11:25;;;;;;;5.67;0.77;;;8.60;98.80;;;;;;4996235;28;20275;-67
2023/12/25 04:13:54;;;;;;;1.40;0.60;;;8.50;98.60;;;;;;5016814;28;20217;-67
2023/12/25 04:16:21;;;;;;;1.43;0.60;;;9.10;98.40;;;;;;5002336;28;20644;-67
2023/12/25 04:18:47;;;;;;;1.57;0.67;;;8.40;98.00;;;;;;5025023;28;20410;-67
2023/12/25 04:21:23;;;;;;;1.27;0.53;;;8.40;98.10;;;;;;5020642;28;20432;-67
2023/12/25 04:23:52;;;;;;;1.60;0.60;;;9.00;98.10;;;;;;5017549;28;20492;-67
2023/12/25 04:26:22;;;;;;;1.20;0.50;;;8.40;97.90;;;;;;5032063;28;20479;-67
2023/12/25 04:28:49;;;;;;;1.13;0.53;;;8.40;97.80;;;;;;4999805;28;20966;-67
2023/12/25 04:31:15;;;;;;;1.30;0.50;;;8.40;97.30;;;;;;5011210;28;20428;-67
2023/12/25 04:33:41;;;;;;;1.20;0.40;;;8.40;97.50;;;;;;5022361;28;20468;-67
2023/12/25 04:36:07;;;;;;;1.20;0.60;;;8.40;97.80;;;;;;5016636;28;20426;-67
2023/12/25 04:38:32;;;;;;;1.63;0.57;;;8.30;97.80;;;;;;5009995;28;20194;-67
2023/12/25 04:40:58;;;;;;;1.20;0.50;;;8.30;97.90;;;;;;5003873;28;20188;-65
2023/12/25 04:43:24;;;;;;;4.60;0.67;;;8.70;98.20;;;;;;5000815;28;20203;-65
2023/12/25 04:45:49;;;;;;;1.47;0.60;;;8.30;97.40;;;;;;5024921;28;20464;-65
2023/12/25 04:48:15;;;;;;;1.27;0.57;;;9.40;98.00;;;;;;5028131;28;20190;-66
2023/12/25 04:50:40;;;;;;;1.20;0.50;;;8.40;97.50;;;;;;5023053;28;20238;-67
2023/12/25 04:53:06;;;;;;;2.40;0.80;;;8.80;97.60;;;;;;5000018;28;20219;-67
2023/12/25 04:55:32;;;;;;;1.40;0.40;;;8.90;97.80;;;;;;5008885;28;20222;-67
2023/12/25 04:57:58;;;;;;;1.30;0.60;;;8.40;97.60;;;;;;5020105;28;20605;-67
2023/12/25 05:00:24;;;;;;;1.80;0.60;;;9.30;97.80;;;;;;5031163;28;20449;-67
2023/12/25 05:02:49;;;;;;;1.90;0.77;;;8.40;97.40;;;;;;5027885;28;20583;-67
2023/12/25 05:05:15;;;;;;;1.10;0.50;;;8.50;97.40;;;;;;5023137;28;20198;-65
2023/12/25 05:07:41;;;;;;;1.30;0.50;;;8.30;97.90;;;;;;5003099;28;20189;-65
2023/12/25 05:10:07;;;;;;;1.10;0.50;;;8.20;98.30;;;;;;5021472;28;20298;-65
2023/12/25 05:12:32;;;;;;;1.40;0.60;;;8.20;98.30;;;;;;4997396;28;20211;-65
2023/12/25 05:14:58;;;;;;;1.40;0.50;;;8.20;97.80;;;;;;5003948;28;20844;-67
2023/12/25 05:17:24;;;;;;;1.60;0.50;;;8.60;98.10;;;;;;4990431;28;20292;-67
2023/12/25 05:19:50;;;;;;;2.07;0.80;;;8.20;97.70;;;;;;5010582;28;20268;-67
2023/12/25 05:22:16;;;;;;;1.73;0.80;;;8.90;98.50;;;;;;4993362;28;21005;-67
2023/12/25 05:24:42;;;;;;;2.07;0.50;;;8.20;97.90;;;;;;5027841;28;20190;-67
2023/12/25 05:27:08;;;;;;;1.40;0.50;;;8.70;98.30;;;;;;5015385;28;20488;-67
2023/12/25 05:29:33;;;;;;;1.10;0.50;;;8.10;98.00;;;;;;5028837;28;20214;-67
2023/12/25 05:31:59;;;;;;;1.63;0.70;;;8.10;98.40;;;;;;5026580;28;20190;-67
2023/12/25 05:34:26;;;;;;;1.90;0.60;;;8.10;98.10;;;;;;5011779;28;20184;-67
2023/12/25 05:36:51;;;;;;;1.70;0.60;;;8.00;98.60;;;;;;5021326;28;20825;-67
2023/12/25 05:39:17;;;;;;;1.10;0.50;;;8.50;99.10;;;;;;5017885;28;20429;-67
2023/12/25 05:41:42;;;;;;;1.53;0.50;;;7.90;98.80;;;;;;5031330;28;20186;-67
2023/12/25 05:44:08;;;;;;;1.53;0.67;;;9.00;99.40;;;;;;5022019;28;20213;-65
2023/12/25 05:46:33;;;;;;;1.87;0.60;;;8.70;99.50;;;;;;5029573;28;20199;-65
2023/12/25 05:48:59;;;;;;;1.10;0.50;;;7.80;98.90;;;;;;5027642;28;20628;-66
2023/12/25 05:51:24;;;;;;;2.30;0.90;;;8.50;99.10;;;;;;5017642;28;20195;-67
2023/12/25 05:53:50;;;;;;;1.40;0.60;;;7.80;98.90;;;;;;5031419;28;20289;-67
2023/12/25 05:56:15;;;;;;;2.43;0.83;;;7.90;98.80;;;;;;5026462;28;20187;-67
2023/12/25 05:58:41;;;;;;;4.10;0.70;;;9.00;99.40;;;;;;5030608;28;20301;-67
2023/12/25 06:01:08;;;;;;;1.20;0.63;;;7.80;98.90;;;;;;5029379;28;20217;-67
2023/12/25 06:03:35;;;;;;;1.10;0.40;;;8.50;99.00;;;;;;5027551;28;20198;-67
2023/12/25 06:06:00;;;;;;;2.60;0.70;;;8.20;99.00;;;;;;5011025;28;20445;-67
2023/12/25 06:08:26;;;;;;;1.10;0.50;;;7.80;98.80;;;;;;5024525;28;20916;-67
2023/12/25 06:10:51;;;;;;;1.97;0.70;;;8.50;98.90;;;;;;5011136;28;20200;-66
2023/12/25 06:13:17;;;;;;;1.53;0.60;;;8.50;98.90;;;;;;5030810;28;20218;-67
2023/12/25 06:15:43;;;;;;;2.50;0.90;;;7.80;98.80;;;;;;5016271;28;20201;-67
2023/12/25 06:18:08;;;;;;;2.90;0.50;;;8.00;99.10;;;;;;5001192;28;20233;-66
2023/12/25 06:20:33;;;;;;;1.20;0.60;;;7.80;98.50;;;;;;5008088;28;20199;-67
2023/12/25 06:22:59;;;;;;;2.23;0.80;;;8.30;99.10;;;;;;5012350;28;20217;-67
2023/12/25 06:25:24;;;;;;;1.87;0.60;;;8.60;99.00;;;;;;5032238;28;20182;-67
2023/12/25 06:27:50;;;;;;;3.13;0.90;;;8.30;99.10;;;;;;5023586;28;20214;-67
2023/12/25 06:30:17;;;;;;;1.43;0.80;;;8.90;99.40;;;;;;5016598;28;20747;-67
2023/12/25 06:32:43;;;;;;;1.70;0.73;;;8.70;99.20;;;;;;5015432;28;20207;-67
2023/12/25 06:35:08;;;;;;;1.20;0.50;;;8.50;98.80;;;;;;5011441;28;20446;-67
2023/12/25 06:37:34;;;;;;;1.87;0.60;;;8.70;99.20;;;;;;5010351;28;20258;-67
2023/12/25 06:39:59;;;;;;;2.40;0.60;;;7.70;98.80;;;;;;5014435;28;20270;-67
2023/12/25 06:42:25;;;;;;;1.40;0.50;;;8.50;98.90;;;;;;5012419;28;20199;-67
2023/12/25 06:44:50;;;;;;;1.37;0.60;;;7.70;98.50;;;;;;5019575;28;20179;-67
2023/12/25 06:47:16;;;;;;;1.70;0.80;;;7.70;98.40;;;;;;5018730;28;20194;-67
2023/12/25 06:49:41;;;;;;;1.83;0.70;;;8.50;98.80;;;;;;5008194;28;20184;-65
2023/12/25 06:52:08;;;;;;;1.57;0.50;;;8.10;98.60;;;;;;5015552;28;20187;-65
2023/12/25 06:54:33;;;;;;;1.80;0.80;;;8.50;98.80;;;;;;5007711;28;20236;-67
2023/12/25 06:56:59;;;;;;;1.10;0.50;;;8.30;98.90;;;;;;5025471;28;20549;-67
2023/12/25 06:59:26;;;;;;;1.40;0.60;;;8.30;98.90;;;;;;5017656;28;20445;-67
2023/12/25 07:01:51;;;;;;;1.70;0.50;;;8.20;98.70;;;;;;4992692;28;20426;-67
2023/12/25 07:04:17;;;;;;;1.40;0.80;;;7.80;98.50;;;;;;5015758;28;20221;-67
2023/12/25 07:06:42;;;;;;;1.70;0.80;;;8.20;98.80;;;;;;5019964;28;20190;-67
2023/12/25 07:09:14;;;;;;;2.53;1.00;;;7.80;98.50;;;;;;5021091;28;20674;-65
2023/12/25 07:11:41;;;;;;;1.97;0.90;;;8.20;98.90;;;;;;5020077;28;20199;-65
2023/12/25 07:14:07;;;;;;;1.20;0.50;;;7.70;98.90;;;;;;5020052;28;20524;-67
2023/12/25 07:16:33;;;;;;;2.43;0.70;;;8.00;99.10;;;;;;5004163;28;20439;-67
2023/12/25 07:18:58;;;;;;;2.33;1.03;;;8.40;99.30;;;;;;5007005;28;20913;-66
2023/12/25 07:21:24;;;;;;;2.50;0.70;;;8.00;99.30;;;;;;5026701;28;20906;-65
2023/12/25 07:23:49;;;;;;;1.97;0.80;;;7.90;99.50;;;;;;5011258;28;20226;-65
2023/12/25 07:26:19;;;;;;;1.10;0.50;;;7.40;99.00;;;;;;5017374;28;20190;-67
2023/12/25 07:28:45;;;;;;;1.90;0.93;;;7.50;98.90;;;;;;5016794;28;20682;-67
2023/12/25 07:31:11;;;;;;;2.47;0.87;;;8.40;99.30;;;;;;5012818;28;20466;-65
2023/12/25 07:33:36;;;;;;;2.80;0.70;;;7.50;98.90;;;;;;5011927;28;20496;-65
2023/12/25 07:36:03;;;;;;;1.57;0.80;;;8.60;99.60;;;;;;5011474;28;20186;-67
2023/12/25 07:38:29;;;;;;;1.97;1.00;;;7.60;98.90;;;;;;5031520;28;20198;-67
2023/12/25 07:40:55;;;;;;;4.07;0.90;;;8.60;99.30;;;;;;5003846;28;20456;-67
2023/12/25 07:43:22;;;;;;;1.67;0.80;;;8.50;99.00;;;;;;4999774;28;20187;-67
2023/12/25 07:45:47;;;;;;;2.10;0.90;;;7.60;98.90;;;;;;5019440;28;20179;-67
2023/12/25 07:48:13;;;;;;;1.10;0.60;;;8.70;99.20;;;;;;5011737;28;20460;-67
2023/12/25 07:50:38;;;;;;;2.57;0.87;;;8.40;99.20;;;;;;5022855;28;20193;-67
2023/12/25 07:53:04;;;;;;;1.77;0.70;;;8.60;99.20;;;;;;5009338;28;20218;-67
2023/12/25 07:55:30;;;;;;;1.40;0.60;;;8.30;99.10;;;;;;4993853;28;20194;-65
2023/12/25 07:57:56;;;;;;;2.10;0.80;;;8.40;99.60;;;;;;5013869;28;20223;-64
2023/12/25 08:00:22;;;;;;;1.63;0.90;;;8.80;99.60;;;;;;5010377;28;20464;-67
2023/12/25 08:02:47;;;;;;;1.30;0.57;;;8.70;99.50;;;;;;5000731;28;20266;-67
2023/12/25 08:05:13;;;;;;;2.83;0.67;;;7.70;99.30;;;;;;5010340;28;20212;-67
2023/12/25 08:07:38;;;;;;;1.63;0.73;;;7.60;99.40;;;;;;5013010;28;20542;-67
2023/12/25 08:10:04;;;;;;;3.07;0.90;;;7.70;99.00;;;;;;5011137;28;20198;-67
2023/12/25 08:12:30;;;;;;;1.57;0.60;;;7.70;99.10;;;;;;5010620;28;20199;-67
2023/12/25 08:14:55;;;;;;;5.47;0.97;;;7.90;99.00;;;;;;5010795;28;20182;-67
2023/12/25 08:17:20;;;;;;;1.73;0.90;;;8.60;99.20;;;;;;5012191;28;20218;-67
2023/12/25 08:19:46;;;;;;;1.70;0.70;;;8.40;99.30;;;;;;5011726;28;20186;-67
2023/12/25 08:22:11;;;;;;;1.80;0.80;;;8.20;99.00;;;;;;5013106;28;20230;-67
2023/12/25 08:24:37;;;;;;;2.07;0.80;;;7.80;99.00;;;;;;5014546;28;20234;-67
2023/12/25 08:27:03;;;;;;;1.23;0.70;;;8.20;99.30;;;;;;5013941;28;20687;-68
2023/12/25 08:29:29;;;;;;;1.10;0.50;;;7.80;98.90;;;;;;5013969;28;20191;-67
2023/12/25 08:31:55;;;;;;;1.57;0.83;;;8.50;99.10;;;;;;5010782;28;20628;-67
2023/12/25 08:34:23;;;;;;;2.73;0.90;;;8.70;99.30;;;;;;5011659;28;20814;-67
2023/12/25 08:36:49;;;;;;;2.07;0.60;;;7.90;98.90;;;;;;5010337;28;20436;-67
2023/12/25 08:39:15;;;;;;;1.40;0.70;;;7.90;99.00;;;;;;5012541;28;20417;-67
2023/12/25 08:41:40;;;;;;;1.57;0.70;;;8.60;99.30;;;;;;5011713;28;20894;-67
2023/12/25 08:44:06;;;;;;;1.30;0.60;;;8.00;99.10;;;;;;5014858;28;20191;-68
2023/12/25 08:46:31;;;;;;;1.40;0.70;;;8.20;99.30;;;;;;5010464;28;20183;-66
2023/12/25 08:48:57;;;;;;;2.00;0.70;;;8.20;99.00;;;;;;4999858;28;20265;-68
2023/12/25 08:51:23;;;;;;;1.30;0.67;;;8.10;99.40;;;;;;5011916;28;20659;-67
2023/12/25 08:53:48;;;;;;;1.60;0.67;;;8.50;99.50;;;;;;5002419;28;20199;-68
2023/12/25 08:56:25;;;;;;;1.90;0.63;;;8.20;99.30;;;;;;5017721;28;20175;-68
2023/12/25 08:58:50;;;;;;;1.20;0.50;;;8.20;99.40;;;;;;5014235;28;20234;-67
2023/12/25 09:01:16;;;;;;;2.10;0.70;;;8.90;99.90;;;;;;5009480;28;20422;-67
2023/12/25 09:03:41;;;;;;;1.53;0.70;;;8.30;99.70;;;;;;5006351;28;20634;-69
2023/12/25 09:06:07;;;;;;;1.20;0.50;;;8.30;99.70;;;;;;5010736;28;20188;-67
2023/12/25 09:08:32;;;;;;;3.00;0.83;;;9.20;99.90;;;;;;5009212;28;20195;-67
2023/12/25 09:10:58;;;;;;;1.27;0.50;;;8.40;99.60;;;;;;5006299;28;20187;-67
2023/12/25 09:13:24;;;;;;;1.20;0.50;;;8.90;99.90;;;;;;5017633;28;20202;-66
2023/12/25 09:15:50;;;;;;;1.10;0.53;;;8.50;99.80;;;;;;5014823;28;20190;-70
2023/12/25 09:18:15;;;;;;;4.67;1.00;;;8.50;99.90;;;;;;5013306;28;20213;-66
2023/12/25 09:20:41;;;;;;;1.53;0.70;;;8.60;99.80;;;;;;5008519;28;20201;-69
2023/12/25 09:23:07;;;;;;;1.83;0.63;;;8.90;99.90;;;;;;5012291;28;20191;-68
2023/12/25 09:25:32;;;;;;;1.40;0.67;;;8.60;99.90;;;;;;5013491;28;20182;-67
2023/12/25 09:27:58;;;;;;;1.50;0.70;;;8.60;99.90;;;;;;5006672;28;20191;-67
2023/12/25 09:30:23;;;;;;;1.30;0.50;;;8.70;99.90;;;;;;5011174;28;20195;-67
2023/12/25 09:32:49;;;;;;;1.60;0.63;;;8.60;99.90;;;;;;5012837;28;20206;-67
2023/12/25 09:35:15;;;;;;;1.40;0.60;;;8.90;99.90;;;;;;5008988;28;20202;-67
2023/12/25 09:37:41;;;;;;;2.23;1.00;;;8.70;99.90;;;;;;5006255;28;20176;-67
2023/12/25 09:40:08;;;;;;;1.60;0.77;;;8.70;99.90;;;;;;5013725;28;20771;-66
2023/12/25 09:42:33;;;;;;;2.37;0.80;;;8.80;99.90;;;;;;5012616;28;20438;-65
2023/12/25 09:44:59;;;;;;;1.60;0.87;;;9.30;99.90;;;;;;5014438;28;20464;-66
2023/12/25 09:47:25;;;;;;;1.20;0.60;;;9.00;99.90;;;;;;5011159;28;20191;-68
2023/12/25 09:49:53;;;;;;;2.17;0.73;;;9.00;99.90;;;;;;5014513;28;20183;-67
2023/12/25 09:52:20;;;;;;;3.83;0.70;;;9.10;99.90;;;;;;5013233;28;21077;-67
2023/12/25 09:54:45;;;;;;;2.10;0.60;;;9.00;99.90;;;;;;5013190;28;20434;-68
2023/12/25 09:57:15;;;;;;;4.50;0.90;;;8.90;99.90;;;;;;5015006;28;20543;-69
2023/12/25 09:59:42;;;;;;;2.10;0.53;;;8.90;99.90;;;;;;5015139;28;20199;-69
2023/12/25 10:02:08;;;;;;;4.23;0.97;;;9.30;99.90;;;;;;5012837;28;20540;-68
2023/12/25 10:04:36;;;;;;;2.03;0.70;;;9.60;99.90;;;;;;5012782;28;20465;-68
2023/12/25 10:07:02;;;;;;;1.20;0.60;;;9.20;99.90;;;;;;5012882;28;20418;-66
2023/12/25 10:09:30;;;;;;;1.50;0.60;;;9.10;99.90;;;;;;5007497;28;20419;-66
2023/12/25 10:11:55;;;;;;;1.70;0.77;;;9.20;99.90;;;;;;5008922;28;20871;-67
2023/12/25 10:14:21;;;;;;;2.00;0.80;;;9.20;99.90;;;;;;5012028;28;20548;-63
2023/12/25 10:16:46;;;;;;;2.10;0.83;;;9.10;99.90;;;;;;5013119;28;20187;-67
2023/12/25 10:19:12;;;;;;;1.53;0.60;;;9.20;99.90;;;;;;5012094;28;20187;-67
2023/12/25 10:21:44;;;;;;;1.40;0.60;;;9.20;99.90;;;;;;5016334;28;20183;-65
2023/12/25 10:24:14;;;;;;;1.73;0.60;;;9.20;99.90;;;;;;5003901;28;20639;-63
2023/12/25 10:26:40;;;;;;;1.10;0.40;;;9.30;99.90;;;;;;5012588;28;20434;-69
2023/12/25 10:29:10;;;;;;;1.20;0.60;;;8.80;99.90;;;;;;5012327;28;20445;-68
2023/12/25 10:31:40;;;;;;;2.43;1.00;;;9.30;99.90;;;;;;5016108;28;20199;-67
2023/12/25 10:34:05;;;;;;;1.23;0.60;;;9.30;99.90;;;;;;5016716;28;20470;-69
2023/12/25 10:36:31;;;;;;;1.20;0.50;;;9.50;99.90;;;;;;5009876;28;20866;-68
2023/12/25 10:38:57;;;;;;;1.30;0.60;;;9.50;99.90;;;;;;5012514;28;20666;-68
2023/12/25 10:41:28;;;;;;;1.10;0.50;;;9.60;99.90;;;;;;5003057;28;20183;-69
2023/12/25 10:44:02;;;;;;;2.33;1.00;;;9.70;99.90;;;;;;5012374;28;20191;-67
2023/12/25 10:46:37;;;;;;;1.93;0.70;;;9.70;99.90;;;;;;5011565;28;20468;-69
2023/12/25 10:49:05;;;;;;;1.27;0.63;;;9.80;99.90;;;;;;5008811;28;20440;-70
2023/12/25 10:51:36;;;;;;;1.10;0.50;;;10.00;99.90;;;;;;5014155;28;20745;-68
2023/12/25 10:54:06;;;;;;;2.60;1.03;;;9.90;99.90;;;;;;5012306;28;20469;-67
2023/12/25 10:56:37;;;;;;;1.20;0.60;;;10.00;99.90;;;;;;5011737;28;20461;-68
2023/12/25 10:59:16;;;;;;;1.40;0.60;;;10.10;99.90;;;;;;5012850;28;20448;-68
2023/12/25 11:01:47;;;;;;;1.40;0.60;;;10.00;99.90;;;;;;4996456;28;20493;-68
2023/12/25 11:04:15;;;;;;;1.10;0.50;;;10.10;99.90;;;;;;5022800;28;20429;-68
2023/12/25 11:06:49;;;;;;;7.63;0.70;;;10.20;99.90;;;;;;5000420;28;20506;-71
2023/12/25 11:09:17;;;;;;;3.63;0.70;;;10.30;99.90;;;;;;5004328;28;20440;-69
2023/12/25 11:11:44;;;;;;;1.30;0.60;;;10.40;99.90;;;;;;5012368;28;20491;-68
2023/12/25 11:14:10;;;;;;;1.50;0.50;;;10.30;99.90;;;;;;5028184;28;20473;-68
2023/12/25 11:16:36;;;;;;;2.23;0.53;;;10.30;99.90;;;;;;5002375;28;20450;-65
2023/12/25 11:19:04;;;;;;;2.17;0.70;;;10.40;99.90;;;;;;5019490;28;20422;-66
2023/12/25 11:21:31;;;;;;;2.23;0.90;;;10.60;99.90;;;;;;5017593;28;20197;-66
2023/12/25 11:23:59;;;;;;;1.10;0.50;;;10.50;99.90;;;;;;5028419;28;20441;-66
2023/12/25 11:26:27;;;;;;;1.30;0.50;;;10.30;99.90;;;;;;5017349;28;20432;-66
2023/12/25 11:29:06;;;;;;;1.60;0.53;;;10.30;99.90;;;;;;5029849;28;20460;-66
2023/12/25 11:31:42;;;;;;;1.20;0.50;;;10.10;99.90;;;;;;5023672;28;20435;-68
2023/12/25 11:34:22;;;;;;;1.53;0.60;;;10.10;99.90;;;;;;5009046;28;20468;-68
2023/12/25 11:36:51;;;;;;;8.20;1.63;;;10.10;99.90;;;;;;5014031;28;20429;-66
2023/12/25 11:39:17;;;;;;;1.93;0.70;;;10.10;99.90;;;;;;5010565;28;20957;-66
2023/12/25 11:41:45;;;;;;;1.93;0.60;;;10.00;99.90;;;;;;5028934;28;20416;-68
2023/12/25 11:44:18;;;;;;;1.63;0.63;;;10.00;99.90;;;;;;5020641;28;21127;-68
2023/12/25 11:46:46;;;;;;;2.17;0.70;;;10.00;99.90;;;;;;5022655;28;20770;-68
2023/12/25 11:49:14;;;;;;;1.20;0.50;;;9.90;99.90;;;;;;5011876;28;20972;-68
2023/12/25 11:51:46;;;;;;;1.10;0.50;;;10.00;99.90;;;;;;5011207;28;20453;-66
2023/12/25 11:54:12;;;;;;;1.20;0.60;;;9.80;99.90;;;;;;5023398;28;20965;-65
2023/12/25 11:56:38;;;;;;;1.60;0.70;;;9.80;99.90;;;;;;5024453;28;20429;-68
2023/12/25 11:59:04;;;;;;;1.83;0.70;;;9.90;99.90;;;;;;5012180;28;20434;-68
2023/12/25 12:01:30;;;;;;;2.03;0.63;;;9.90;99.90;;;;;;5011434;28;20422;-68
2023/12/25 12:03:55;;;;;;;1.10;0.50;;;9.90;99.90;;;;;;5021056;28;20935;-68
2023/12/25 12:06:21;;;;;;;1.97;0.60;;;9.90;99.90;;;;;;5030846;28;20190;-68
2023/12/25 12:08:48;;;;;;;1.70;0.93;;;9.90;99.90;;;;;;5017755;28;20221;-68
2023/12/25 12:11:14;;;;;;;5.50;1.07;;;9.90;99.90;;;;;;5011916;28;20190;-67
2023/12/25 12:13:40;;;;;;;1.93;0.70;;;9.80;99.90;;;;;;5012905;28;20474;-68
2023/12/25 12:16:06;;;;;;;5.07;0.90;;;10.00;99.90;;;;;;5013988;28;20468;-68
2023/12/25 12:18:32;;;;;;;2.90;0.67;;;10.00;99.90;;;;;;5031773;28;20420;-68
2023/12/25 12:20:58;;;;;;;1.27;0.60;;;9.90;99.90;;;;;;5018501;28;20418;-68
2023/12/25 12:23:28;;;;;;;1.10;0.50;;;10.00;99.90;;;;;;4999592;28;20183;-71
2023/12/25 12:25:53;;;;;;;3.67;1.07;;;9.90;99.90;;;;;;4998681;28;20258;-65
2023/12/25 12:28:19;;;;;;;3.57;0.60;;;9.90;99.90;;;;;;5016077;28;20529;-64
2023/12/25 12:30:44;;;;;;;2.47;0.77;;;9.90;99.90;;;;;;5010193;28;20192;-68
2023/12/25 12:33:12;;;;;;;1.30;0.63;;;9.90;99.90;;;;;;5002585;28;20225;-68
2023/12/25 12:35:39;;;;;;;2.93;1.20;;;9.90;99.90;;;;;;5007396;28;20179;-65
2023/12/25 12:38:04;;;;;;;1.53;0.70;;;9.90;99.90;;;;;;5014919;28;20422;-65
2023/12/25 12:40:30;;;;;;;1.30;0.60;;;10.00;99.90;;;;;;5019147;28;20432;-65
2023/12/25 12:42:56;;;;;;;1.23;0.60;;;9.90;99.90;;;;;;5012096;28;20671;-65
2023/12/25 12:45:21;;;;;;;1.10;0.60;;;10.00;99.90;;;;;;5006876;28;20281;-64
2023/12/25 12:47:50;;;;;;;1.50;0.60;;;10.00;99.90;;;;;;5022576;28;20182;-65
2023/12/25 12:50:16;;;;;;;1.10;0.50;;;9.90;99.90;;;;;;5011266;28;20171;-65